createdAt,value
2023-03-22T00:00:27.607Z,64.89
2023-03-22T00:03:33.430Z,65.28
2023-03-22T00:06:39.803Z,65.28
2023-03-22T00:09:45.597Z,65.37
2023-03-22T00:12:52.056Z,65.14
2023-03-22T00:16:03.041Z,65.59
2023-03-22T00:19:09.347Z,65.58
2023-03-22T00:22:14.831Z,65.04
2023-03-22T00:25:21.606Z,65.58
2023-03-22T00:28:27.855Z,65.50
2023-03-22T00:31:36.991Z,65.72
2023-03-22T00:34:42.479Z,66.21
2023-03-22T00:37:51.774Z,66.14
2023-03-22T00:40:57.545Z,65.98
2023-03-22T00:44:03.834Z,66.48
2023-03-22T00:47:12.445Z,66.45
2023-03-22T00:50:18.696Z,67.13
2023-03-22T00:53:24.156Z,67.08
2023-03-22T00:56:34.073Z,67.11
2023-03-22T00:59:48.105Z,66.48
2023-03-22T01:03:04.316Z,66.64
2023-03-22T01:06:11.747Z,66.67
2023-03-22T01:09:18.286Z,67.12
2023-03-22T01:12:24.712Z,66.50
2023-03-22T01:15:31.456Z,66.66
2023-03-22T01:18:40.224Z,66.42
2023-03-22T01:21:47.364Z,66.54
2023-03-22T01:24:54.501Z,65.80
2023-03-22T01:28:03.085Z,66.14
2023-03-22T01:31:09.305Z,66.47
2023-03-22T01:34:18.810Z,66.28
2023-03-22T01:37:27.933Z,66.43
2023-03-22T01:40:36.804Z,66.92
2023-03-22T01:43:42.836Z,66.98
2023-03-22T01:46:52.870Z,66.88
2023-03-22T01:50:02.101Z,67.51
2023-03-22T01:53:15.726Z,67.60
2023-03-22T01:56:28.512Z,67.24
2023-03-22T01:59:35.736Z,67.00
2023-03-22T02:02:56.316Z,67.01
2023-03-22T02:06:15.554Z,66.75
2023-03-22T02:09:22.353Z,66.75
2023-03-22T02:12:50.497Z,66.96
2023-03-22T02:16:41.707Z,67.06
2023-03-22T02:21:01.196Z,67.36
2023-03-22T02:24:56.499Z,67.61
2023-03-22T02:28:20.995Z,68.31
2023-03-22T02:32:14.231Z,69.09
2023-03-22T02:35:44.491Z,69.30
2023-03-22T02:39:24.600Z,69.44
2023-03-22T02:42:53.396Z,70.02
2023-03-22T02:46:12.461Z,69.99
2023-03-22T02:49:34.400Z,69.81
2023-03-22T02:52:49.408Z,69.98
2023-03-22T02:56:06.829Z,69.55
2023-03-22T02:59:17.158Z,69.63
2023-03-22T03:02:25.492Z,69.71
2023-03-22T03:05:37.625Z,69.36
2023-03-22T03:08:46.969Z,69.88
2023-03-22T03:11:58.032Z,69.89
2023-03-22T03:15:04.177Z,69.67
2023-03-22T03:18:35.204Z,69.88
2023-03-22T03:21:56.961Z,69.47
2023-03-22T03:25:20.379Z,69.41
2023-03-22T03:28:43.753Z,69.43
2023-03-22T03:32:03.013Z,69.46
2023-03-22T03:35:22.747Z,69.33
2023-03-22T03:38:37.651Z,69.76
2023-03-22T03:41:49.774Z,69.70
2023-03-22T03:45:00.644Z,69.46
2023-03-22T03:48:13.262Z,69.30
2023-03-22T03:51:20.724Z,68.81
2023-03-22T03:54:27.426Z,69.05
2023-03-22T03:57:33.976Z,69.30
2023-03-22T04:00:43.008Z,68.83
2023-03-22T04:04:06.297Z,69.34
2023-03-22T04:07:33.793Z,69.55
2023-03-22T04:10:40.935Z,68.84
2023-03-22T04:13:46.793Z,69.52
2023-03-22T04:17:01.964Z,69.20
2023-03-22T04:20:11.601Z,68.75
2023-03-22T04:23:22.668Z,68.85
2023-03-22T04:26:30.592Z,68.95
2023-03-22T04:29:56.479Z,68.87
2023-03-22T04:33:55.671Z,68.46
2023-03-22T04:37:09.609Z,68.81
2023-03-22T04:40:20.993Z,69.03
2023-03-22T04:43:39.720Z,69.11
2023-03-22T04:46:49.707Z,69.40
2023-03-22T04:49:59.754Z,69.62
2023-03-22T04:53:08.056Z,68.84
2023-03-22T04:56:17.980Z,68.54
2023-03-22T04:59:25.474Z,68.45
2023-03-22T05:02:32.789Z,67.90
2023-03-22T05:05:41.258Z,67.22
2023-03-22T05:08:48.030Z,66.87
2023-03-22T05:11:54.419Z,66.60
2023-03-22T05:15:43.090Z,66.35
2023-03-22T05:18:54.624Z,66.51
2023-03-22T05:22:04.299Z,66.54
2023-03-22T05:25:27.808Z,67.09
2023-03-22T05:28:36.153Z,67.19
2023-03-22T05:31:49.985Z,67.09
2023-03-22T05:34:56.522Z,66.40
2023-03-22T05:38:13.357Z,66.47
2023-03-22T05:41:25.247Z,66.05
2023-03-22T05:44:31.336Z,66.27
2023-03-22T05:47:46.970Z,66.15
2023-03-22T05:50:57.654Z,65.53
2023-03-22T05:54:07.836Z,65.32
2023-03-22T05:57:19.237Z,65.57
2023-03-22T06:00:26.438Z,65.93
2023-03-22T06:03:52.287Z,66.02
2023-03-22T06:07:06.559Z,65.56
2023-03-22T06:10:24.411Z,65.65
2023-03-22T06:13:31.292Z,65.37
2023-03-22T06:16:37.282Z,65.21
2023-03-22T06:19:43.781Z,64.87
2023-03-22T06:22:51.615Z,64.55
2023-03-22T06:26:01.296Z,64.33
2023-03-22T06:29:08.066Z,64.72
2023-03-22T06:32:14.952Z,64.27
2023-03-22T06:35:21.096Z,64.96
2023-03-22T06:38:28.191Z,64.52
2023-03-22T06:41:37.187Z,64.24
2023-03-22T06:44:44.984Z,64.25
2023-03-22T06:47:55.129Z,63.81
2023-03-22T06:51:13.999Z,63.90
2023-03-22T06:54:20.102Z,64.24
2023-03-22T06:57:29.395Z,63.02
2023-03-22T07:00:35.144Z,63.60
2023-03-22T07:03:42.437Z,63.08
2023-03-22T07:06:52.430Z,62.51
2023-03-22T07:09:59.813Z,62.84
2023-03-22T07:13:08.632Z,61.74
2023-03-22T07:16:18.704Z,61.94
2023-03-22T07:19:35.248Z,61.40
2023-03-22T07:22:46.672Z,62.21
2023-03-22T07:25:53.794Z,61.34
2023-03-22T07:29:13.251Z,61.28
2023-03-22T07:32:19.447Z,61.14
2023-03-22T07:35:40.986Z,60.58
2023-03-22T07:38:47.189Z,61.08
2023-03-22T07:41:59.884Z,59.86
2023-03-22T07:45:29.173Z,59.65
2023-03-22T07:48:54.434Z,59.31
2023-03-22T07:52:18.306Z,58.68
2023-03-22T07:55:24.922Z,58.01
2023-03-22T07:58:30.681Z,57.81
2023-03-22T08:01:40.962Z,57.87
2023-03-22T08:04:59.699Z,57.90
2023-03-22T08:08:33.515Z,57.34
2023-03-22T08:11:40.212Z,56.96
2023-03-22T08:14:50.655Z,55.93
2023-03-22T08:18:04.283Z,56.89
2023-03-22T08:21:30.960Z,56.60
2023-03-22T08:24:37.726Z,55.31
2023-03-22T08:27:46.706Z,55.37
2023-03-22T08:30:54.650Z,55.97
2023-03-22T08:34:04.973Z,55.15
2023-03-22T08:37:12.261Z,54.73
2023-03-22T08:40:20.232Z,54.55
2023-03-22T08:43:31.249Z,54.83
2023-03-22T08:46:37.808Z,54.15
2023-03-22T08:49:46.216Z,53.92
2023-03-22T08:53:00.890Z,54.07
2023-03-22T08:56:11.138Z,54.31
2023-03-22T08:59:35.202Z,53.14
2023-03-22T09:02:59.349Z,53.34
2023-03-22T09:06:09.821Z,52.56
2023-03-22T09:09:17.994Z,51.75
2023-03-22T09:12:29.940Z,51.38
2023-03-22T09:15:35.682Z,50.71
2023-03-22T09:18:50.670Z,50.34
2023-03-22T09:22:02.576Z,49.26
2023-03-22T09:25:19.512Z,49.38
2023-03-22T09:28:27.516Z,48.40
2023-03-22T09:31:36.529Z,49.20
2023-03-22T09:34:57.532Z,48.95
2023-03-22T09:38:12.412Z,48.99
2023-03-22T09:41:27.403Z,48.09
2023-03-22T09:44:44.382Z,48.54
2023-03-22T09:48:01.965Z,48.14
2023-03-22T09:51:22.704Z,49.00
2023-03-22T09:54:38.651Z,50.07
2023-03-22T09:57:45.373Z,50.15
2023-03-22T10:01:01.746Z,50.11
2023-03-22T10:04:41.762Z,50.52
2023-03-22T10:08:11.779Z,50.64
2023-03-22T10:11:38.324Z,50.14
2023-03-22T10:14:51.958Z,50.99
2023-03-22T10:18:05.556Z,51.33
2023-03-22T10:21:15.496Z,51.25
2023-03-22T10:24:29.808Z,50.21
2023-03-22T10:27:40.584Z,49.69
2023-03-22T10:30:55.793Z,49.80
2023-03-22T10:34:08.868Z,49.76
2023-03-22T10:37:21.409Z,49.38
2023-03-22T10:40:32.523Z,49.17
2023-03-22T10:43:45.880Z,49.16
2023-03-22T10:46:55.782Z,48.76
2023-03-22T10:50:10.147Z,48.83
2023-03-22T10:53:31.723Z,48.88
2023-03-22T10:56:38.130Z,48.81
2023-03-22T10:59:55.060Z,48.23
2023-03-22T11:03:04.380Z,46.81
2023-03-22T11:06:14.614Z,47.43
2023-03-22T11:09:23.811Z,46.37
2023-03-22T11:12:32.499Z,46.91
2023-03-22T11:15:52.692Z,47.01
2023-03-22T11:19:01.269Z,46.27
2023-03-22T11:22:23.333Z,47.09
2023-03-22T11:25:34.250Z,47.39
2023-03-22T11:28:49.533Z,47.66
2023-03-22T11:32:01.970Z,47.94
2023-03-22T11:35:18.052Z,47.40
2023-03-22T11:38:32.766Z,47.65
2023-03-22T11:41:43.662Z,47.67
2023-03-22T11:44:49.599Z,47.20
2023-03-22T11:48:05.813Z,46.66
2023-03-22T11:51:15.930Z,47.33
2023-03-22T11:54:33.642Z,46.39
2023-03-22T11:57:41.387Z,46.31
2023-03-22T12:00:52.600Z,46.57
2023-03-22T12:04:04.816Z,46.13
2023-03-22T12:07:22.264Z,45.80
2023-03-22T12:10:35.504Z,45.64
2023-03-22T12:13:52.906Z,45.80
2023-03-22T12:17:05.925Z,46.00
2023-03-22T12:20:33.246Z,45.29
2023-03-22T12:23:39.712Z,45.54
2023-03-22T12:26:47.525Z,45.66
2023-03-22T12:30:01.930Z,45.50
2023-03-22T12:33:22.177Z,45.48
2023-03-22T12:36:43.289Z,46.07
2023-03-22T12:39:58.369Z,44.78
2023-03-22T12:43:16.900Z,44.99
2023-03-22T12:46:29.267Z,46.50
2023-03-22T12:49:49.337Z,44.25
2023-03-22T12:52:59.726Z,45.24
2023-03-22T12:56:06.792Z,44.60
2023-03-22T12:59:23.725Z,43.97
2023-03-22T13:02:35.733Z,44.16
2023-03-22T13:05:42.779Z,44.49
2023-03-22T13:09:40.632Z,44.09
2023-03-22T13:13:17.712Z,44.17
2023-03-22T13:16:27.649Z,44.17
2023-03-22T13:19:39.696Z,44.11
2023-03-22T13:23:30.651Z,42.81
2023-03-22T13:26:49.726Z,43.90
2023-03-22T13:30:05.897Z,44.37
2023-03-22T13:33:27.610Z,43.72
2023-03-22T13:36:37.591Z,42.44
2023-03-22T13:39:46.654Z,42.92
2023-03-22T13:42:56.262Z,42.51
2023-03-22T13:46:48.529Z,42.00
2023-03-22T13:50:06.834Z,42.94
2023-03-22T13:53:28.736Z,41.80
2023-03-22T13:56:57.422Z,41.87
2023-03-22T14:00:20.852Z,40.29
2023-03-22T14:03:35.148Z,39.87
2023-03-22T14:06:57.554Z,39.60
2023-03-22T14:10:09.889Z,40.17
2023-03-22T14:13:30.775Z,41.09
2023-03-22T14:16:49.766Z,40.65
2023-03-22T14:19:58.465Z,39.11
2023-03-22T14:55:05.111Z,40.92
2023-03-22T14:58:20.360Z,40.72
2023-03-22T15:01:33.539Z,40.42
2023-03-22T15:08:16.338Z,40.40
2023-03-22T15:11:25.222Z,40.99
2023-03-22T15:14:37.053Z,40.89
2023-03-22T15:17:47.659Z,41.12
2023-03-22T15:20:58.292Z,41.15
2023-03-22T15:24:32.688Z,41.24
2023-03-22T15:27:40.175Z,40.76
2023-03-22T15:30:53.655Z,41.23
2023-03-22T15:33:59.311Z,40.89
2023-03-22T15:37:09.299Z,41.09
2023-03-22T15:40:40.916Z,41.11
2023-03-22T15:43:48.721Z,41.31
2023-03-22T15:47:00.772Z,41.14
2023-03-22T15:50:12.427Z,41.21
2023-03-22T15:53:35.333Z,41.38
2023-03-22T15:56:47.676Z,41.88
2023-03-22T16:00:20.645Z,41.48
2023-03-22T16:03:44.390Z,41.82
2023-03-22T16:06:51.314Z,41.81
2023-03-22T16:10:02.331Z,41.57
2023-03-22T16:13:20.721Z,41.63
2023-03-22T16:16:32.436Z,41.48
2023-03-22T16:19:38.202Z,42.28
2023-03-22T16:22:48.070Z,41.91
2023-03-22T16:25:56.854Z,42.14
2023-03-22T16:29:03.976Z,42.48
2023-03-22T16:32:16.812Z,42.30
2023-03-22T16:35:28.012Z,41.94
2023-03-22T16:38:33.954Z,42.10
2023-03-22T16:41:43.936Z,42.47
2023-03-22T16:44:56.183Z,42.04
2023-03-22T16:48:04.557Z,43.00
2023-03-22T16:51:23.876Z,42.55
2023-03-22T16:57:39.117Z,43.17
2023-03-22T17:00:45.718Z,43.37
2023-03-22T17:03:54.491Z,43.09
2023-03-22T17:07:01.250Z,44.05
2023-03-22T17:10:09.005Z,43.61
2023-03-22T17:13:19.319Z,44.26
2023-03-22T17:16:26.205Z,44.37
2023-03-22T17:19:34.219Z,43.97
2023-03-22T17:22:41.038Z,44.02
2023-03-22T17:25:51.714Z,44.51
2023-03-22T17:29:00.335Z,45.13
2023-03-22T17:32:16.795Z,44.76
2023-03-22T17:35:34.601Z,45.20
2023-03-22T17:38:49.720Z,45.24
2023-03-22T17:42:09.235Z,45.17
2023-03-22T17:45:27.541Z,45.75
2023-03-22T17:48:34.270Z,45.48
2023-03-22T17:51:41.143Z,45.32
2023-03-22T17:58:27.529Z,45.63
2023-03-22T18:01:27.908Z,45.41
2023-03-22T18:04:37.311Z,46.24
2023-03-22T18:07:43.694Z,46.20
2023-03-22T18:10:50.424Z,46.52
2023-03-22T18:13:57.530Z,46.45
2023-03-22T18:17:17.362Z,46.55
2023-03-22T18:20:46.200Z,46.81
2023-03-22T18:23:52.474Z,46.69
2023-03-22T18:27:10.595Z,46.64
2023-03-22T18:30:23.194Z,46.26
2023-03-22T18:33:32.972Z,46.67
2023-03-22T18:36:40.816Z,46.90
2023-03-22T18:40:22.893Z,46.85
2023-03-22T18:43:15.097Z,46.94
2023-03-22T18:46:21.767Z,46.98
2023-03-22T18:49:31.336Z,47.57
2023-03-22T18:52:54.299Z,47.44
2023-03-22T18:56:06.887Z,47.48
2023-03-22T18:59:15.763Z,47.93
2023-03-22T19:02:38.302Z,47.55
2023-03-22T19:05:48.988Z,47.83
2023-03-22T19:08:58.334Z,47.98
2023-03-22T19:12:04.367Z,47.79
2023-03-22T19:18:24.121Z,48.29
2023-03-22T19:21:34.764Z,48.00
2023-03-22T19:24:42.057Z,48.34
2023-03-22T19:27:51.970Z,48.53
2023-03-22T19:30:59.853Z,48.70
2023-03-22T19:34:06.774Z,48.92
2023-03-22T19:37:15.477Z,48.85
2023-03-22T19:41:23.503Z,48.65
2023-03-22T19:43:48.720Z,48.78
2023-03-22T19:46:56.430Z,49.06
2023-03-22T19:50:02.736Z,48.85
2023-03-22T19:53:51.814Z,48.97
2023-03-22T19:56:39.677Z,49.44
2023-03-22T19:59:57.177Z,49.35
2023-03-22T20:03:12.989Z,49.64
2023-03-22T20:06:20.343Z,49.09
2023-03-22T20:09:29.259Z,49.42
2023-03-22T20:12:36.096Z,49.66
2023-03-22T20:15:42.346Z,49.71
2023-03-22T20:18:49.286Z,49.73
2023-03-22T20:21:55.515Z,50.34
2023-03-22T20:25:06.410Z,49.93
2023-03-22T20:28:13.571Z,49.94
2023-03-22T20:31:21.675Z,50.27
2023-03-22T20:34:27.727Z,49.99
2023-03-22T20:37:35.018Z,50.02
2023-03-22T20:40:44.298Z,50.42
2023-03-22T20:43:51.429Z,50.74
2023-03-22T20:46:57.436Z,50.62
2023-03-22T20:50:04.554Z,50.82
2023-03-22T20:53:10.550Z,50.40
2023-03-22T20:56:20.901Z,50.84
2023-03-22T20:59:26.849Z,51.13
2023-03-22T21:02:33.548Z,50.72
2023-03-22T21:05:41.927Z,51.03
2023-03-22T21:08:48.836Z,51.18
2023-03-22T21:11:57.713Z,51.20
2023-03-22T21:15:04.766Z,50.96
2023-03-22T21:18:10.773Z,51.48
2023-03-22T21:21:17.841Z,51.62
2023-03-22T21:24:24.066Z,51.86
2023-03-22T21:27:34.181Z,52.01
2023-03-22T21:30:42.382Z,51.99
2023-03-22T21:33:48.881Z,51.92
2023-03-22T21:36:54.770Z,51.87
2023-03-22T21:40:07.252Z,52.16
2023-03-22T21:43:15.876Z,52.48
2023-03-22T21:46:23.050Z,52.06
2023-03-22T21:49:30.389Z,52.36
2023-03-22T21:52:37.001Z,52.36
2023-03-22T21:55:44.359Z,52.37
2023-03-22T21:58:54.679Z,52.38
2023-03-22T22:02:00.402Z,52.48
2023-03-22T22:05:07.470Z,52.58
2023-03-22T22:08:13.152Z,52.28
2023-03-22T22:11:20.018Z,52.30
2023-03-22T22:14:28.484Z,52.59
2023-03-22T22:17:35.443Z,52.88
2023-03-22T22:20:41.832Z,52.98
2023-03-22T22:23:49.885Z,52.62
2023-03-22T22:27:07.374Z,52.78
2023-03-22T22:30:23.222Z,52.37
2023-03-22T22:33:29.108Z,52.64
2023-03-22T22:36:36.496Z,53.15
2023-03-22T22:39:42.260Z,53.06
2023-03-22T22:42:48.896Z,53.17
2023-03-22T22:45:57.813Z,52.95
2023-03-22T22:49:04.467Z,53.27
2023-03-22T22:52:11.586Z,53.64
2023-03-22T22:55:18.263Z,53.64
2023-03-22T22:58:24.523Z,52.87
2023-03-22T23:01:34.212Z,53.42
2023-03-22T23:04:40.230Z,53.26
2023-03-22T23:07:47.008Z,53.83
2023-03-22T23:10:56.608Z,53.37
2023-03-22T23:14:06.384Z,53.93
2023-03-22T23:17:14.972Z,53.75
2023-03-22T23:20:23.640Z,54.13
2023-03-22T23:23:30.172Z,54.07
2023-03-22T23:26:38.978Z,53.86
2023-03-22T23:29:45.730Z,54.23
2023-03-22T23:33:01.100Z,54.82
2023-03-22T23:36:20.134Z,54.70
2023-03-22T23:39:29.838Z,54.65
2023-03-22T23:42:35.810Z,54.68
2023-03-22T23:45:43.193Z,54.71
2023-03-22T23:48:52.460Z,55.29
2023-03-22T23:51:59.210Z,54.57
2023-03-22T23:55:05.500Z,53.95
2023-03-22T23:58:12.043Z,55.00
